Time;durP1;ratioP1;P1;durP2;ratioP2;P2;SDS_P1;SDS_P2;PMS_P1;PMS_P2;Temp;Humidity;BMP_temperature;BMP_pressure;BME280_temperature;BME280_humidity;BME280_pressure;Samples;Min_cycle;Max_cycle;Signal;HPM_P1;HPM_P2
2021/04/25 00:00:09;;;;;;;;;17.75;16.75;;;;;;;;3724286;37;20838;-64
2021/04/25 00:02:35;;;;;;;;;18.50;16.50;;;;;;;;3724411;37;18435;-65
2021/04/25 00:05:01;;;;;;;;;14.00;14.00;;;;;;;;3724604;37;20854;-65
2021/04/25 00:07:28;;;;;;;;;19.00;18.00;;;;;;;;3725027;37;18434;-64
2021/04/25 00:09:54;;;;;;;;;17.50;17.00;;;;;;;;3724724;37;18409;-64
2021/04/25 00:12:21;;;;;;;;;18.25;18.25;;;;;;;;3724931;38;20810;-65
2021/04/25 00:14:47;;;;;;;;;15.25;14.75;;;;;;;;3724823;37;20837;-63
2021/04/25 00:17:13;;;;;;;;;18.25;17.75;;;;;;;;3724843;38;18420;-65
2021/04/25 00:19:40;;;;;;;;;14.00;13.50;;;;;;;;3724905;37;18387;-65
2021/04/25 00:22:05;;;;;;;;;15.25;15.25;;;;;;;;3724896;38;18384;-65
2021/04/25 00:24:31;;;;;;;;;13.00;12.25;;;;;;;;3724944;37;20835;-64
2021/04/25 00:26:57;;;;;;;;;17.00;17.00;;;;;;;;3724779;37;18384;-63
2021/04/25 00:29:23;;;;;;;;;19.00;18.25;;;;;;;;3724849;38;18363;-65
2021/04/25 00:31:49;;;;;;;;;19.00;18.25;;;;;;;;3724881;37;18373;-63
2021/04/25 00:34:15;;;;;;;;;7.50;7.00;;;;;;;;3724869;37;20820;-65
2021/04/25 00:36:40;;;;;;;;;18.75;17.75;;;;;;;;3724723;38;18362;-65
2021/04/25 00:39:06;;;;;;;;;14.00;13.00;;;;;;;;3725040;38;18364;-65
2021/04/25 00:41:32;;;;;;;;;18.25;15.75;;;;;;;;3724931;37;18367;-64
2021/04/25 00:43:58;;;;;;;;;16.00;15.25;;;;;;;;3724963;37;18358;-65
2021/04/25 00:46:23;;;;;;;;;16.00;15.25;;;;;;;;3724894;37;18381;-65
2021/04/25 00:48:51;;;;;;;;;14.25;14.25;;;;;;;;3725028;38;18346;-64
2021/04/25 00:51:20;;;;;;;;;15.75;15.75;;;;;;;;3725036;37;18376;-64
2021/04/25 00:53:46;;;;;;;;;11.50;10.75;;;;;;;;3724843;37;20780;-65
2021/04/25 00:56:13;;;;;;;;;14.75;13.00;;;;;;;;3724766;38;20839;-63
2021/04/25 00:58:41;;;;;;;;;11.25;11.25;;;;;;;;3725073;38;18335;-63
2021/04/25 01:01:07;;;;;;;;;17.50;15.50;;;;;;;;3724400;37;20756;-63
2021/04/25 01:03:34;;;;;;;;;14.50;14.50;;;;;;;;3724639;37;20784;-65
2021/04/25 01:06:01;;;;;;;;;13.25;12.00;;;;;;;;3724523;38;20752;-65
2021/04/25 01:08:27;;;;;;;;;12.00;11.25;;;;;;;;3724578;37;21000;-64
2021/04/25 01:10:53;;;;;;;;;13.00;13.00;;;;;;;;3724987;37;20758;-65
2021/04/25 01:13:21;;;;;;;;;12.75;12.25;;;;;;;;3724900;37;20741;-65
2021/04/25 01:15:46;;;;;;;;;15.50;14.00;;;;;;;;3724996;38;20744;-63
2021/04/25 01:18:13;;;;;;;;;12.75;12.00;;;;;;;;3724912;38;18300;-64
2021/04/25 01:20:39;;;;;;;;;14.00;13.50;;;;;;;;3724699;38;18325;-64
2021/04/25 01:23:05;;;;;;;;;16.75;16.00;;;;;;;;3724996;37;20740;-65
2021/04/25 01:25:31;;;;;;;;;28.25;24.00;;;;;;;;3724932;38;18329;-65
2021/04/25 01:27:57;;;;;;;;;24.75;21.50;;;;;;;;3724408;37;20756;-65
2021/04/25 01:30:26;;;;;;;;;14.25;14.00;;;;;;;;3724979;38;18291;-63
2021/04/25 01:32:54;;;;;;;;;11.75;11.75;;;;;;;;3724613;38;18304;-65
2021/04/25 01:35:22;;;;;;;;;16.00;15.00;;;;;;;;3724945;38;20691;-64
2021/04/25 01:37:51;;;;;;;;;16.50;15.75;;;;;;;;3724443;37;20783;-65
2021/04/25 01:40:19;;;;;;;;;12.75;12.75;;;;;;;;3725141;38;20737;-65
2021/04/25 01:42:45;;;;;;;;;12.25;12.25;;;;;;;;3725053;38;20705;-64
2021/04/25 01:45:16;;;;;;;;;13.25;13.00;;;;;;;;3724843;38;20706;-64
2021/04/25 01:47:48;;;;;;;;;13.50;13.50;;;;;;;;3724929;37;20692;-65
2021/04/25 01:50:17;;;;;;;;;12.50;12.50;;;;;;;;3724507;37;20721;-63
2021/04/25 01:52:43;;;;;;;;;9.50;9.50;;;;;;;;3724567;37;20696;-64
2021/04/25 01:55:11;;;;;;;;;15.00;15.00;;;;;;;;3725200;38;20649;-65
2021/04/25 01:57:40;;;;;;;;;14.50;14.00;;;;;;;;3724785;38;18302;-65
2021/04/25 02:00:13;;;;;;;;;14.75;14.75;;;;;;;;3724478;38;20689;-65
2021/04/25 02:02:39;;;;;;;;;15.50;15.25;;;;;;;;3724532;38;20696;-64
2021/04/25 02:05:06;;;;;;;;;14.00;13.50;;;;;;;;3724557;38;20701;-64
2021/04/25 02:07:33;;;;;;;;;13.25;13.25;;;;;;;;3724968;38;20661;-65
2021/04/25 02:10:01;;;;;;;;;14.00;13.75;;;;;;;;3724780;37;20671;-64
2021/04/25 02:12:28;;;;;;;;;14.25;14.25;;;;;;;;3725248;37;20696;-65
2021/04/25 02:14:55;;;;;;;;;13.00;12.50;;;;;;;;3725440;38;20670;-65
2021/04/25 02:17:21;;;;;;;;;13.25;13.00;;;;;;;;3724922;38;20666;-65
2021/04/25 02:19:47;;;;;;;;;12.00;12.00;;;;;;;;3724782;37;20651;-69
2021/04/25 02:22:13;;;;;;;;;13.25;12.25;;;;;;;;3724847;37;20634;-65
2021/04/25 02:24:39;;;;;;;;;14.25;13.50;;;;;;;;3724862;37;18238;-64
2021/04/25 02:27:05;;;;;;;;;15.50;15.00;;;;;;;;3724841;37;18214;-64
2021/04/25 02:29:36;;;;;;;;;14.50;13.25;;;;;;;;3724818;37;18223;-65
2021/04/25 02:32:03;;;;;;;;;13.00;13.00;;;;;;;;3724901;37;20662;-65
2021/04/25 02:34:31;;;;;;;;;12.50;12.25;;;;;;;;3724978;37;20655;-65
2021/04/25 02:36:57;;;;;;;;;10.75;10.75;;;;;;;;3724867;38;20645;-65
2021/04/25 02:39:23;;;;;;;;;16.00;13.75;;;;;;;;3724819;38;20626;-65
2021/04/25 02:41:49;;;;;;;;;14.25;13.00;;;;;;;;3724546;37;18223;-65
2021/04/25 02:44:15;;;;;;;;;13.50;13.50;;;;;;;;3724636;37;20647;-64
2021/04/25 02:46:41;;;;;;;;;16.00;15.00;;;;;;;;3724814;37;18190;-66
2021/04/25 02:49:08;;;;;;;;;13.25;13.25;;;;;;;;3724877;37;20634;-65
2021/04/25 02:51:34;;;;;;;;;12.75;12.75;;;;;;;;3724703;38;18205;-64
2021/04/25 02:54:00;;;;;;;;;13.50;13.00;;;;;;;;3724951;38;20640;-64
2021/04/25 02:56:26;;;;;;;;;12.00;12.00;;;;;;;;3724979;37;18176;-64
2021/04/25 02:58:53;;;;;;;;;16.25;15.50;;;;;;;;3724879;37;18205;-63
2021/04/25 03:01:19;;;;;;;;;15.50;15.00;;;;;;;;3724817;37;20606;-64
2021/04/25 03:03:47;;;;;;;;;20.25;18.25;;;;;;;;3724907;38;20590;-64
2021/04/25 03:06:13;;;;;;;;;15.25;14.00;;;;;;;;3724550;38;18176;-65
2021/04/25 03:08:40;;;;;;;;;19.75;18.75;;;;;;;;3724841;37;20595;-65
2021/04/25 03:11:07;;;;;;;;;17.50;17.00;;;;;;;;3724985;38;18160;-64
2021/04/25 03:13:33;;;;;;;;;25.50;21.25;;;;;;;;3724930;37;20606;-64
2021/04/25 03:16:00;;;;;;;;;24.25;22.50;;;;;;;;3724864;37;20607;-64
2021/04/25 03:18:26;;;;;;;;;26.00;25.00;;;;;;;;3724878;37;20587;-65
2021/04/25 03:20:52;;;;;;;;;23.25;21.50;;;;;;;;3724861;38;18163;-65
2021/04/25 03:23:18;;;;;;;;;24.00;23.25;;;;;;;;3724855;38;20601;-64
2021/04/25 03:25:44;;;;;;;;;26.00;24.00;;;;;;;;3724771;38;18157;-64
2021/04/25 03:28:10;;;;;;;;;30.50;27.25;;;;;;;;3724632;37;18172;-65
2021/04/25 03:30:36;;;;;;;;;36.75;31.25;;;;;;;;3724963;37;18154;-64
2021/04/25 03:33:03;;;;;;;;;30.00;30.00;;;;;;;;3724874;38;20635;-64
2021/04/25 03:35:29;;;;;;;;;29.50;29.00;;;;;;;;3724955;38;18143;-68
2021/04/25 03:37:55;;;;;;;;;29.00;28.75;;;;;;;;3724907;37;20564;-65
2021/04/25 03:40:21;;;;;;;;;29.50;28.25;;;;;;;;3724956;38;20567;-64
2021/04/25 03:42:47;;;;;;;;;31.25;28.25;;;;;;;;3724622;38;18117;-64
2021/04/25 03:45:14;;;;;;;;;29.25;28.25;;;;;;;;3724894;37;18131;-65
2021/04/25 03:47:44;;;;;;;;;26.00;24.50;;;;;;;;3724921;38;20558;-63
2021/04/25 03:50:10;;;;;;;;;26.00;25.00;;;;;;;;3724832;38;20570;-63
2021/04/25 03:52:36;;;;;;;;;22.50;21.50;;;;;;;;3724854;37;20567;-64
2021/04/25 03:55:03;;;;;;;;;22.75;22.25;;;;;;;;3724894;38;20533;-66
2021/04/25 03:57:29;;;;;;;;;39.75;34.75;;;;;;;;3724520;37;18131;-65
2021/04/25 03:59:56;;;;;;;;;47.00;37.50;;;;;;;;3724773;37;20573;-66
2021/04/25 04:02:22;;;;;;;;;29.25;27.75;;;;;;;;3724907;38;18108;-66
2021/04/25 04:04:48;;;;;;;;;25.25;24.75;;;;;;;;3724928;38;20522;-65
2021/04/25 04:07:14;;;;;;;;;24.50;24.00;;;;;;;;3724922;37;18085;-66
2021/04/25 04:09:45;;;;;;;;;21.00;20.50;;;;;;;;3724769;37;18111;-65
2021/04/25 04:12:13;;;;;;;;;23.75;23.00;;;;;;;;3725035;37;20522;-66
2021/04/25 04:14:41;;;;;;;;;23.25;23.25;;;;;;;;3724839;37;20521;-67
2021/04/25 04:17:07;;;;;;;;;23.00;21.00;;;;;;;;3726030;38;20531;-66
2021/04/25 04:19:33;;;;;;;;;18.25;17.00;;;;;;;;3725545;37;20520;-65
2021/04/25 04:22:00;;;;;;;;;26.25;23.50;;;;;;;;3725226;38;18086;-64
2021/04/25 04:24:27;;;;;;;;;23.25;21.25;;;;;;;;3725039;37;18067;-66
2021/04/25 04:26:55;;;;;;;;;24.25;23.25;;;;;;;;3724899;38;20527;-66
2021/04/25 04:29:21;;;;;;;;;20.00;20.00;;;;;;;;3724569;37;20505;-66
2021/04/25 04:31:47;;;;;;;;;22.50;22.50;;;;;;;;3725181;37;20509;-66
2021/04/25 04:34:13;;;;;;;;;24.00;21.75;;;;;;;;3725698;37;20695;-62
2021/04/25 04:36:39;;;;;;;;;21.25;21.25;;;;;;;;3726287;37;18056;-65
2021/04/25 04:39:05;;;;;;;;;21.00;19.25;;;;;;;;3725798;38;20481;-66
2021/04/25 04:41:31;;;;;;;;;26.75;24.25;;;;;;;;3724827;37;20468;-66
2021/04/25 04:44:03;;;;;;;;;24.25;24.25;;;;;;;;3725052;37;20491;-65
2021/04/25 04:46:29;;;;;;;;;28.50;25.00;;;;;;;;3724978;37;18057;-65
2021/04/25 04:48:56;;;;;;;;;23.75;22.50;;;;;;;;3725068;37;20477;-66
2021/04/25 04:51:23;;;;;;;;;17.75;17.25;;;;;;;;3725274;38;18057;-66
2021/04/25 04:53:50;;;;;;;;;18.75;16.75;;;;;;;;3724627;38;20466;-64
2021/04/25 04:56:17;;;;;;;;;13.75;12.75;;;;;;;;3724214;37;20687;-67
2021/04/25 04:58:43;;;;;;;;;13.00;12.25;;;;;;;;3724737;37;20676;-66
2021/04/25 05:01:09;;;;;;;;;16.00;16.00;;;;;;;;3724724;38;20462;-66
2021/04/25 05:03:35;;;;;;;;;15.00;14.00;;;;;;;;3725039;37;18042;-65
2021/04/25 05:06:01;;;;;;;;;17.50;16.50;;;;;;;;3724928;37;20454;-66
2021/04/25 05:08:27;;;;;;;;;16.50;15.00;;;;;;;;3725090;38;18021;-65
2021/04/25 05:10:53;;;;;;;;;18.25;15.25;;;;;;;;3725107;37;18008;-66
2021/04/25 05:13:19;;;;;;;;;16.00;15.75;;;;;;;;3724932;37;18008;-65
2021/04/25 05:15:45;;;;;;;;;15.75;14.75;;;;;;;;3724851;37;17998;-65
2021/04/25 05:18:17;;;;;;;;;18.75;17.75;;;;;;;;3724934;37;17990;-65
2021/04/25 05:20:48;;;;;;;;;20.50;18.00;;;;;;;;3725031;38;20434;-66
2021/04/25 05:23:20;;;;;;;;;16.00;15.50;;;;;;;;3725140;37;20441;-66
2021/04/25 05:25:46;;;;;;;;;15.50;15.50;;;;;;;;3724955;37;20438;-66
2021/04/25 05:28:11;;;;;;;;;19.50;17.25;;;;;;;;3724999;38;20417;-65
2021/04/25 05:30:37;;;;;;;;;18.25;17.00;;;;;;;;3725192;37;17972;-65
2021/04/25 05:33:03;;;;;;;;;14.75;13.25;;;;;;;;3725099;37;18284;-66
2021/04/25 05:35:29;;;;;;;;;19.50;19.25;;;;;;;;3724810;38;17987;-66
2021/04/25 05:37:54;;;;;;;;;15.00;14.75;;;;;;;;3725075;37;20494;-64
2021/04/25 05:40:20;;;;;;;;;19.50;19.50;;;;;;;;3725125;38;17967;-65
2021/04/25 05:42:46;;;;;;;;;19.00;17.50;;;;;;;;3725128;38;17964;-65
2021/04/25 05:45:22;;;;;;;;;14.00;14.00;;;;;;;;3724995;37;20502;-63
2021/04/25 05:47:50;;;;;;;;;18.00;17.00;;;;;;;;3724605;38;17958;-64
2021/04/25 05:50:15;;;;;;;;;20.25;17.50;;;;;;;;3724816;37;20397;-63
2021/04/25 05:52:43;;;;;;;;;12.75;12.75;;;;;;;;3725080;37;20408;-65
2021/04/25 05:55:09;;;;;;;;;16.00;15.00;;;;;;;;3725044;37;20405;-64
2021/04/25 05:57:35;;;;;;;;;9.50;9.50;;;;;;;;3725040;37;17955;-64
2021/04/25 06:00:01;;;;;;;;;12.25;11.75;;;;;;;;3725081;38;20335;-63
2021/04/25 06:02:28;;;;;;;;;12.50;12.25;;;;;;;;3725180;37;17933;-62
2021/04/25 06:04:54;;;;;;;;;9.25;9.00;;;;;;;;3725018;37;17932;-63
2021/04/25 06:07:19;;;;;;;;;10.75;10.00;;;;;;;;3724720;38;20335;-62
2021/04/25 06:09:45;;;;;;;;;12.25;12.25;;;;;;;;3725237;38;17945;-64
2021/04/25 06:12:12;;;;;;;;;11.00;11.00;;;;;;;;3725071;38;17919;-63
2021/04/25 06:14:37;;;;;;;;;9.25;9.25;;;;;;;;3725082;38;17920;-62
2021/04/25 06:17:03;;;;;;;;;10.50;8.75;;;;;;;;3725072;37;20358;-65
2021/04/25 06:19:31;;;;;;;;;7.75;7.75;;;;;;;;3725189;38;17941;-64
2021/04/25 06:21:56;;;;;;;;;10.25;10.25;;;;;;;;3724641;37;20348;-65
2021/04/25 06:24:22;;;;;;;;;13.50;12.00;;;;;;;;3724709;38;20309;-65
2021/04/25 06:26:48;;;;;;;;;11.25;10.25;;;;;;;;3724516;38;17905;-63
2021/04/25 06:29:14;;;;;;;;;12.00;11.75;;;;;;;;3724965;37;17897;-66
2021/04/25 06:31:40;;;;;;;;;9.50;8.75;;;;;;;;3725049;37;17890;-63
2021/04/25 06:34:06;;;;;;;;;13.00;12.25;;;;;;;;3724793;38;20289;-64
2021/04/25 06:36:33;;;;;;;;;10.00;9.75;;;;;;;;3724520;37;17895;-64
2021/04/25 06:38:59;;;;;;;;;12.75;11.75;;;;;;;;3725458;37;17927;-63
2021/04/25 06:41:25;;;;;;;;;13.00;13.00;;;;;;;;3724920;37;20353;-65
2021/04/25 06:43:51;;;;;;;;;15.25;13.50;;;;;;;;3724988;37;17905;-64
2021/04/25 06:46:19;;;;;;;;;15.00;14.00;;;;;;;;3724881;37;20301;-64
2021/04/25 06:48:45;;;;;;;;;10.75;10.50;;;;;;;;3725013;38;20340;-64
2021/04/25 06:51:11;;;;;;;;;13.75;13.50;;;;;;;;3725197;38;20294;-62
2021/04/25 06:53:36;;;;;;;;;15.00;14.25;;;;;;;;3725198;37;17895;-65
2021/04/25 06:56:03;;;;;;;;;11.75;11.75;;;;;;;;3725155;38;20331;-63
2021/04/25 06:58:29;;;;;;;;;8.50;8.50;;;;;;;;3725328;37;17867;-65
2021/04/25 07:00:54;;;;;;;;;12.25;12.00;;;;;;;;3725213;38;20259;-65
2021/04/25 07:03:20;;;;;;;;;18.00;17.50;;;;;;;;3725303;37;20300;-65
2021/04/25 07:05:46;;;;;;;;;14.25;14.00;;;;;;;;3725028;38;17862;-65
2021/04/25 07:08:13;;;;;;;;;14.00;14.00;;;;;;;;3725416;37;20300;-65
2021/04/25 07:10:39;;;;;;;;;14.75;14.75;;;;;;;;3725193;38;17843;-64
2021/04/25 07:13:06;;;;;;;;;13.25;13.25;;;;;;;;3725898;37;20293;-65
2021/04/25 07:15:32;;;;;;;;;14.50;14.00;;;;;;;;3726761;38;17835;-65
2021/04/25 07:17:59;;;;;;;;;14.50;12.75;;;;;;;;3725998;37;20287;-65
2021/04/25 07:20:25;;;;;;;;;11.50;10.50;;;;;;;;3725345;37;20280;-64
2021/04/25 07:22:51;;;;;;;;;12.25;12.25;;;;;;;;3725164;37;20263;-64
2021/04/25 07:25:17;;;;;;;;;11.50;10.00;;;;;;;;3724960;38;20281;-67
2021/04/25 07:27:44;;;;;;;;;12.75;12.75;;;;;;;;3724958;37;17840;-64
2021/04/25 07:30:11;;;;;;;;;14.25;14.25;;;;;;;;3724829;37;17842;-63
2021/04/25 07:32:37;;;;;;;;;16.25;14.75;;;;;;;;3724707;37;20236;-65
2021/04/25 07:35:03;;;;;;;;;13.50;12.75;;;;;;;;3724678;37;20257;-64
2021/04/25 07:37:28;;;;;;;;;13.00;12.25;;;;;;;;3724723;37;17810;-64
2021/04/25 07:39:55;;;;;;;;;10.50;10.25;;;;;;;;3724961;38;20537;-66
2021/04/25 07:42:21;;;;;;;;;14.00;14.00;;;;;;;;3724538;38;17810;-64
2021/04/25 07:44:47;;;;;;;;;12.75;12.00;;;;;;;;3725147;38;20191;-64
2021/04/25 07:47:13;;;;;;;;;13.75;13.25;;;;;;;;3725160;37;17813;-62
2021/04/25 07:49:39;;;;;;;;;12.25;11.75;;;;;;;;3725093;37;20229;-63
2021/04/25 07:52:05;;;;;;;;;16.75;14.50;;;;;;;;3725333;37;20218;-63
2021/04/25 07:54:31;;;;;;;;;14.75;14.75;;;;;;;;3725203;37;20199;-65
2021/04/25 07:56:58;;;;;;;;;11.00;11.00;;;;;;;;3725255;38;20370;-64
2021/04/25 07:59:24;;;;;;;;;11.75;11.75;;;;;;;;3725075;37;20198;-64
2021/04/25 08:01:50;;;;;;;;;14.00;14.00;;;;;;;;3725024;38;20223;-65
2021/04/25 08:04:15;;;;;;;;;13.50;12.75;;;;;;;;3725193;37;20197;-64
2021/04/25 08:06:42;;;;;;;;;17.00;15.50;;;;;;;;3724657;37;17812;-63
2021/04/25 08:09:08;;;;;;;;;11.50;11.50;;;;;;;;3724627;37;17777;-65
2021/04/25 08:11:37;;;;;;;;;16.00;16.00;;;;;;;;3724758;38;20208;-65
2021/04/25 08:14:05;;;;;;;;;13.25;13.00;;;;;;;;3724534;38;20227;-63
2021/04/25 08:16:30;;;;;;;;;13.75;13.00;;;;;;;;3723919;38;20195;-64
2021/04/25 08:18:56;;;;;;;;;18.75;16.50;;;;;;;;3724532;38;20195;-64
2021/04/25 08:21:24;;;;;;;;;21.75;20.50;;;;;;;;3724434;37;17746;-65
2021/04/25 08:23:50;;;;;;;;;15.00;13.75;;;;;;;;3724291;37;17769;-63
2021/04/25 08:26:17;;;;;;;;;17.25;16.00;;;;;;;;3724466;38;20184;-66
2021/04/25 08:28:42;;;;;;;;;14.25;14.00;;;;;;;;3724768;38;17760;-63
2021/04/25 08:31:08;;;;;;;;;16.75;14.00;;;;;;;;3724202;38;20453;-65
2021/04/25 08:33:34;;;;;;;;;15.75;15.50;;;;;;;;3724757;37;17749;-67
2021/04/25 08:36:00;;;;;;;;;13.25;13.25;;;;;;;;3724489;38;17760;-63
2021/04/25 08:38:26;;;;;;;;;12.00;12.00;;;;;;;;3724816;37;17743;-63
2021/04/25 08:40:52;;;;;;;;;15.75;12.75;;;;;;;;3724990;38;17831;-62
2021/04/25 08:43:25;;;;;;;;;15.75;14.75;;;;;;;;3725114;37;20192;-64
2021/04/25 08:45:59;;;;;;;;;13.75;13.75;;;;;;;;3725007;38;20155;-67
2021/04/25 08:48:28;;;;;;;;;16.00;15.00;;;;;;;;3725265;37;20175;-66
2021/04/25 08:50:54;;;;;;;;;15.75;14.75;;;;;;;;3725252;37;20159;-67
2021/04/25 08:53:20;;;;;;;;;14.75;14.25;;;;;;;;3725092;37;20153;-64
2021/04/25 08:55:47;;;;;;;;;15.00;14.75;;;;;;;;3725175;37;20131;-62
2021/04/25 08:58:13;;;;;;;;;14.25;13.00;;;;;;;;3725203;37;20196;-65
2021/04/25 09:00:39;;;;;;;;;12.75;12.00;;;;;;;;3725114;37;20125;-64
2021/04/25 09:03:04;;;;;;;;;15.00;15.00;;;;;;;;3724800;37;20114;-65
2021/04/25 09:05:32;;;;;;;;;13.50;13.50;;;;;;;;3725301;37;17703;-64
2021/04/25 09:08:02;;;;;;;;;22.50;22.00;;;;;;;;3725522;38;20176;-64
2021/04/25 09:10:38;;;;;;;;;10.75;10.75;;;;;;;;3724860;37;20232;-64
2021/04/25 09:13:21;;;;;;;;;14.25;13.00;;;;;;;;3724669;38;20100;-65
2021/04/25 09:15:48;;;;;;;;;15.75;14.75;;;;;;;;3724624;37;20131;-65
2021/04/25 09:18:15;;;;;;;;;15.75;15.75;;;;;;;;3724925;37;20103;-65
2021/04/25 09:20:45;;;;;;;;;21.00;20.75;;;;;;;;3724656;37;20101;-63
2021/04/25 09:23:13;;;;;;;;;16.75;15.75;;;;;;;;3724831;38;20103;-66
2021/04/25 09:25:39;;;;;;;;;20.00;16.25;;;;;;;;3725112;38;20131;-66
2021/04/25 09:28:11;;;;;;;;;17.50;16.50;;;;;;;;3724891;37;20104;-66
2021/04/25 09:30:37;;;;;;;;;16.25;16.25;;;;;;;;3725045;37;20098;-65
2021/04/25 09:33:04;;;;;;;;;17.25;15.25;;;;;;;;3724743;38;20094;-65
2021/04/25 09:35:31;;;;;;;;;15.00;15.00;;;;;;;;3724844;38;17648;-67
2021/04/25 09:37:58;;;;;;;;;15.50;15.25;;;;;;;;3724452;37;20101;-66
2021/04/25 09:40:27;;;;;;;;;18.25;18.00;;;;;;;;3725218;37;20096;-67
2021/04/25 09:43:05;;;;;;;;;16.25;16.25;;;;;;;;3726926;37;20091;-70
2021/04/25 09:45:57;;;;;;;;;14.50;14.25;;;;;;;;3726022;38;20096;-66
2021/04/25 09:48:35;;;;;;;;;13.00;13.00;;;;;;;;3725317;37;20112;-64
2021/04/25 09:51:26;;;;;;;;;15.00;14.75;;;;;;;;3725150;38;20091;-66
2021/04/25 09:54:02;;;;;;;;;17.00;17.00;;;;;;;;3727418;38;20075;-65
2021/04/25 09:56:38;;;;;;;;;19.25;19.25;;;;;;;;3725034;37;20047;-63
2021/04/25 09:59:05;;;;;;;;;19.00;19.00;;;;;;;;3724492;38;20056;-65
2021/04/25 10:01:34;;;;;;;;;18.75;18.25;;;;;;;;3724498;37;20080;-63
2021/04/25 10:04:01;;;;;;;;;15.75;13.50;;;;;;;;3724769;38;20077;-66
2021/04/25 10:06:29;;;;;;;;;18.50;18.00;;;;;;;;3724862;38;20049;-70
2021/04/25 10:08:55;;;;;;;;;13.00;12.00;;;;;;;;3724570;38;20078;-63
2021/04/25 10:11:22;;;;;;;;;17.00;15.25;;;;;;;;3725027;37;20057;-66
2021/04/25 10:13:47;;;;;;;;;13.25;13.25;;;;;;;;3725015;37;17589;-66
2021/04/25 10:16:14;;;;;;;;;14.00;14.00;;;;;;;;3724220;38;20067;-66
2021/04/25 10:18:40;;;;;;;;;16.25;15.25;;;;;;;;3724229;37;17584;-70
2021/04/25 10:21:05;;;;;;;;;16.00;15.50;;;;;;;;3724855;37;20023;-68
2021/04/25 10:23:31;;;;;;;;;14.00;14.00;;;;;;;;3725308;37;17613;-68
2021/04/25 10:25:57;;;;;;;;;14.25;14.25;;;;;;;;3725049;38;17591;-66
2021/04/25 10:28:31;;;;;;;;;13.00;11.25;;;;;;;;3725076;37;20078;-66
2021/04/25 10:31:01;;;;;;;;;13.50;13.00;;;;;;;;3725213;37;17576;-65
2021/04/25 10:33:45;;;;;;;;;15.75;15.75;;;;;;;;3725374;38;20026;-66
2021/04/25 10:36:11;;;;;;;;;13.00;12.50;;;;;;;;3724907;38;20058;-66
2021/04/25 10:38:38;;;;;;;;;12.25;12.25;;;;;;;;3724960;38;20015;-66
2021/04/25 10:41:20;;;;;;;;;15.50;15.00;;;;;;;;3724699;37;17578;-65
2021/04/25 10:43:59;;;;;;;;;14.50;12.75;;;;;;;;3725016;38;20021;-66
2021/04/25 10:46:25;;;;;;;;;14.25;14.00;;;;;;;;3725004;38;20003;-66
2021/04/25 10:49:11;;;;;;;;;14.50;13.75;;;;;;;;3725221;37;20020;-67
2021/04/25 10:51:43;;;;;;;;;12.00;11.00;;;;;;;;3725094;38;20025;-66
2021/04/25 10:54:09;;;;;;;;;13.50;13.50;;;;;;;;3724702;37;20993;-64
2021/04/25 10:56:35;;;;;;;;;18.25;17.00;;;;;;;;3724994;38;19989;-65
2021/04/25 10:59:27;;;;;;;;;14.25;14.25;;;;;;;;3724967;38;17559;-64
2021/04/25 11:01:53;;;;;;;;;15.50;13.75;;;;;;;;3724404;38;20023;-67
2021/04/25 11:04:37;;;;;;;;;13.25;13.25;;;;;;;;3724307;37;20977;-64
2021/04/25 11:07:28;;;;;;;;;13.50;13.50;;;;;;;;3724370;37;21028;-62
2021/04/25 11:09:54;;;;;;;;;13.00;13.00;;;;;;;;3724518;37;21022;-62
2021/04/25 11:12:39;;;;;;;;;14.25;14.00;;;;;;;;3724590;37;20982;-60
2021/04/25 11:15:05;;;;;;;;;12.50;12.25;;;;;;;;3724607;37;18517;-63
2021/04/25 11:17:31;;;;;;;;;13.00;13.00;;;;;;;;3724808;37;20964;-64
2021/04/25 11:20:20;;;;;;;;;13.25;12.75;;;;;;;;3725336;37;20972;-63
2021/04/25 11:22:50;;;;;;;;;13.00;12.50;;;;;;;;3725226;38;20937;-63
2021/04/25 11:25:32;;;;;;;;;14.25;13.50;;;;;;;;3725100;37;20948;-64
2021/04/25 11:27:58;;;;;;;;;10.75;10.00;;;;;;;;3724999;37;20965;-64
2021/04/25 11:30:33;;;;;;;;;10.25;10.00;;;;;;;;3725016;38;20952;-63
2021/04/25 11:33:19;;;;;;;;;8.75;8.75;;;;;;;;3725145;37;18507;-64
2021/04/25 11:35:45;;;;;;;;;9.75;9.00;;;;;;;;3724992;37;20902;-65
2021/04/25 11:38:11;;;;;;;;;11.25;10.25;;;;;;;;3725084;38;20866;-63
2021/04/25 11:40:37;;;;;;;;;9.25;9.25;;;;;;;;3725149;37;18512;-63
2021/04/25 11:43:03;;;;;;;;;8.50;8.50;;;;;;;;3725098;38;20855;-62
2021/04/25 11:45:30;;;;;;;;;12.75;12.25;;;;;;;;3725101;37;20948;-62
2021/04/25 11:48:02;;;;;;;;;11.00;11.00;;;;;;;;3725199;37;18482;-64
2021/04/25 11:50:40;;;;;;;;;8.25;8.25;;;;;;;;3725188;37;20925;-63
2021/04/25 11:53:06;;;;;;;;;9.00;9.00;;;;;;;;3725109;38;20853;-63
2021/04/25 11:55:32;;;;;;;;;8.50;8.00;;;;;;;;3725284;38;20852;-61
2021/04/25 11:57:58;;;;;;;;;6.25;6.25;;;;;;;;3725209;37;18491;-63
2021/04/25 12:00:26;;;;;;;;;8.25;8.25;;;;;;;;3725230;37;18477;-64
2021/04/25 12:02:55;;;;;;;;;10.00;10.00;;;;;;;;3725593;37;18482;-64
2021/04/25 12:05:26;;;;;;;;;10.75;10.50;;;;;;;;3725277;37;20905;-64
2021/04/25 12:07:57;;;;;;;;;9.00;8.75;;;;;;;;3725565;37;20911;-63
2021/04/25 12:10:31;;;;;;;;;7.50;7.00;;;;;;;;3725900;38;20849;-62
2021/04/25 12:13:02;;;;;;;;;8.00;8.00;;;;;;;;3725514;38;20813;-62
2021/04/25 12:15:29;;;;;;;;;9.00;9.00;;;;;;;;3730609;37;20832;-63
2021/04/25 12:17:56;;;;;;;;;7.50;7.50;;;;;;;;3732449;38;20890;-65
2021/04/25 12:20:23;;;;;;;;;7.00;7.00;;;;;;;;3731094;38;20825;-62
2021/04/25 12:22:50;;;;;;;;;7.00;7.00;;;;;;;;3731216;38;20805;-64
2021/04/25 12:25:16;;;;;;;;;8.25;7.00;;;;;;;;3729729;38;20821;-62
2021/04/25 12:27:53;;;;;;;;;9.75;9.00;;;;;;;;3729012;38;20845;-62
2021/04/25 12:30:37;;;;;;;;;7.75;6.25;;;;;;;;3733877;37;20830;-62
2021/04/25 12:33:07;;;;;;;;;9.25;7.75;;;;;;;;3731607;37;20828;-64
2021/04/25 12:35:35;;;;;;;;;6.25;6.25;;;;;;;;3730087;37;20822;-64
2021/04/25 12:38:13;;;;;;;;;3.75;3.25;;;;;;;;3730534;38;20798;-63
2021/04/25 12:40:39;;;;;;;;;3.50;3.00;;;;;;;;3731693;37;20827;-62
2021/04/25 12:43:12;;;;;;;;;4.50;4.50;;;;;;;;3727624;38;20863;-64
2021/04/25 12:45:39;;;;;;;;;7.00;7.00;;;;;;;;3726611;37;18411;-64
2021/04/25 12:48:23;;;;;;;;;5.50;5.50;;;;;;;;3726200;37;20803;-62
2021/04/25 12:51:07;;;;;;;;;6.00;6.00;;;;;;;;3725707;38;20798;-64
2021/04/25 12:53:54;;;;;;;;;7.50;7.00;;;;;;;;3725576;38;20824;-62
2021/04/25 12:56:32;;;;;;;;;7.50;7.50;;;;;;;;3725991;37;20803;-64
2021/04/25 12:59:06;;;;;;;;;6.25;6.25;;;;;;;;3725366;38;20791;-62
2021/04/25 13:01:36;;;;;;;;;17.25;16.25;;;;;;;;3725543;37;20784;-62
2021/04/25 13:04:19;;;;;;;;;10.50;8.75;;;;;;;;3725677;38;20810;-63
2021/04/25 13:06:45;;;;;;;;;11.25;10.75;;;;;;;;3725723;37;20841;-65
2021/04/25 13:09:16;;;;;;;;;4.75;4.00;;;;;;;;3725496;38;20839;-66
2021/04/25 13:11:42;;;;;;;;;6.50;6.50;;;;;;;;3726361;37;18383;-63
2021/04/25 13:14:08;;;;;;;;;8.00;7.00;;;;;;;;3727626;37;20735;-64
2021/04/25 13:16:35;;;;;;;;;7.75;7.75;;;;;;;;3727336;37;20753;-64
2021/04/25 13:19:01;;;;;;;;;7.25;6.00;;;;;;;;3726763;38;20730;-62
2021/04/25 13:21:46;;;;;;;;;9.00;8.00;;;;;;;;3726449;37;20759;-62
2021/04/25 13:24:13;;;;;;;;;5.25;5.25;;;;;;;;3727363;37;20737;-62
2021/04/25 13:26:41;;;;;;;;;6.00;6.00;;;;;;;;3727028;37;20725;-64
2021/04/25 13:29:12;;;;;;;;;5.50;5.50;;;;;;;;3726638;38;20730;-68
2021/04/25 13:31:41;;;;;;;;;7.25;6.50;;;;;;;;3726538;38;20735;-63
2021/04/25 13:34:06;;;;;;;;;5.00;5.00;;;;;;;;3726389;38;20731;-62
2021/04/25 13:36:32;;;;;;;;;6.75;6.25;;;;;;;;3726391;37;20721;-61
2021/04/25 13:39:00;;;;;;;;;7.00;7.00;;;;;;;;3726599;38;18351;-64
2021/04/25 13:41:26;;;;;;;;;7.25;6.25;;;;;;;;3726535;38;20704;-63
2021/04/25 13:43:52;;;;;;;;;5.25;5.25;;;;;;;;3726390;37;18319;-65
2021/04/25 13:46:19;;;;;;;;;4.25;4.00;;;;;;;;3726356;38;18327;-63
2021/04/25 13:48:49;;;;;;;;;6.00;6.00;;;;;;;;3726458;37;18310;-64
2021/04/25 13:51:15;;;;;;;;;6.75;6.00;;;;;;;;3726382;38;20692;-64
2021/04/25 13:53:42;;;;;;;;;6.00;6.00;;;;;;;;3725863;38;20683;-63
2021/04/25 13:56:08;;;;;;;;;6.75;6.75;;;;;;;;3725877;38;18315;-64
2021/04/25 13:58:33;;;;;;;;;5.00;5.00;;;;;;;;3725667;37;20702;-62
2021/04/25 14:00:59;;;;;;;;;7.75;6.50;;;;;;;;3725770;38;18292;-63
2021/04/25 14:03:25;;;;;;;;;12.00;9.50;;;;;;;;3725519;38;18292;-63
2021/04/25 14:05:52;;;;;;;;;6.75;6.00;;;;;;;;3725590;37;20768;-65
2021/04/25 14:08:19;;;;;;;;;9.00;6.00;;;;;;;;3725609;37;18292;-64
2021/04/25 14:10:45;;;;;;;;;7.75;6.50;;;;;;;;3725341;37;20673;-62
2021/04/25 14:13:11;;;;;;;;;5.50;5.50;;;;;;;;3725385;38;20670;-63
2021/04/25 14:15:37;;;;;;;;;5.50;5.00;;;;;;;;3725477;37;20776;-63
2021/04/25 14:18:09;;;;;;;;;6.25;6.25;;;;;;;;3725197;37;18298;-63
2021/04/25 14:20:35;;;;;;;;;4.50;4.00;;;;;;;;3725348;38;20663;-63
2021/04/25 14:23:01;;;;;;;;;6.00;6.00;;;;;;;;3725407;37;20648;-64
2021/04/25 14:25:27;;;;;;;;;5.00;5.00;;;;;;;;3725320;37;20652;-64